sensor_id;sensor_type;location;lat;lon;timestamp;pressure;altitude;pressure_sealevel;temperature;humidity
26083;BME280;13848;49.018;12.078;2022-09-09T00:02:01;97437.41;;;16.06;79.82
26083;BME280;13848;49.018;12.078;2022-09-09T00:04:31;97447.72;;;15.99;80.02
26083;BME280;13848;49.018;12.078;2022-09-09T00:07:04;97450.75;;;16.02;79.93
26083;BME280;13848;49.018;12.078;2022-09-09T00:09:38;97444.16;;;15.93;80.88
26083;BME280;13848;49.018;12.078;2022-09-09T00:12:10;97439.84;;;15.97;80.61
26083;BME280;13848;49.018;12.078;2022-09-09T00:14:45;97432.78;;;16.01;80.25
26083;BME280;13848;49.018;12.078;2022-09-09T00:17:20;97438.19;;;15.96;80.11
26083;BME280;13848;49.018;12.078;2022-09-09T00:19:56;97443.09;;;15.99;79.79
26083;BME280;13848;49.018;12.078;2022-09-09T00:22:27;97445.19;;;15.87;79.89
26083;BME280;13848;49.018;12.078;2022-09-09T00:24:55;97434.31;;;15.87;79.89
26083;BME280;13848;49.018;12.078;2022-09-09T00:27:28;97429.41;;;15.84;80.03
26083;BME280;13848;49.018;12.078;2022-09-09T00:29:58;97431.00;;;15.80;79.90
26083;BME280;13848;49.018;12.078;2022-09-09T00:32:29;97430.16;;;15.74;80.44
26083;BME280;13848;49.018;12.078;2022-09-09T00:34:58;97435.91;;;15.78;80.08
26083;BME280;13848;49.018;12.078;2022-09-09T00:37:29;97435.91;;;15.78;80.07
26083;BME280;13848;49.018;12.078;2022-09-09T00:39:58;97436.41;;;15.75;80.24
26083;BME280;13848;49.018;12.078;2022-09-09T00:42:35;97441.34;;;15.78;79.88
26083;BME280;13848;49.018;12.078;2022-09-09T00:45:17;97430.75;;;15.81;80.94
26083;BME280;13848;49.018;12.078;2022-09-09T00:47:45;97438.94;;;15.86;80.76
26083;BME280;13848;49.018;12.078;2022-09-09T00:50:21;97432.44;;;15.92;80.45
26083;BME280;13848;49.018;12.078;2022-09-09T00:52:56;97435.44;;;15.91;81.23
26083;BME280;13848;49.018;12.078;2022-09-09T00:55:31;97436.78;;;15.88;81.85
26083;BME280;13848;49.018;12.078;2022-09-09T00:58:00;97442.00;;;15.95;82.07
26083;BME280;13848;49.018;12.078;2022-09-09T01:00:29;97435.50;;;16.01;82.04
26083;BME280;13848;49.018;12.078;2022-09-09T01:03:11;97443.06;;;15.94;83.13
26083;BME280;13848;49.018;12.078;2022-09-09T01:05:44;97443.84;;;15.84;83.94
26083;BME280;13848;49.018;12.078;2022-09-09T01:08:22;97449.41;;;15.67;85.37
26083;BME280;13848;49.018;12.078;2022-09-09T01:10:54;97445.00;;;15.61;86.49
26083;BME280;13848;49.018;12.078;2022-09-09T01:13:24;97450.88;;;15.80;85.29
26083;BME280;13848;49.018;12.078;2022-09-09T01:15:51;97451.13;;;15.79;85.60
26083;BME280;13848;49.018;12.078;2022-09-09T01:18:20;97447.59;;;15.78;85.17
26083;BME280;13848;49.018;12.078;2022-09-09T01:20:53;97446.81;;;15.88;85.09
26083;BME280;13848;49.018;12.078;2022-09-09T01:23:34;97450.03;;;15.80;85.01
26083;BME280;13848;49.018;12.078;2022-09-09T01:26:18;97452.63;;;15.64;86.04
26083;BME280;13848;49.018;12.078;2022-09-09T01:28:47;97445.06;;;15.66;86.01
26083;BME280;13848;49.018;12.078;2022-09-09T01:31:17;97446.47;;;15.74;85.77
26083;BME280;13848;49.018;12.078;2022-09-09T01:33:44;97428.53;;;15.73;85.38
26083;BME280;13848;49.018;12.078;2022-09-09T01:36:12;97438.59;;;15.73;85.34
26083;BME280;13848;49.018;12.078;2022-09-09T01:38:41;97432.59;;;15.76;85.23
26083;BME280;13848;49.018;12.078;2022-09-09T01:41:07;97434.56;;;15.53;86.94
26083;BME280;13848;49.018;12.078;2022-09-09T01:43:34;97434.56;;;15.53;87.00
26083;BME280;13848;49.018;12.078;2022-09-09T01:46:01;97428.47;;;15.36;87.42
26083;BME280;13848;49.018;12.078;2022-09-09T01:48:27;97430.75;;;15.49;86.97
26083;BME280;13848;49.018;12.078;2022-09-09T01:50:54;97438.09;;;15.49;87.48
26083;BME280;13848;49.018;12.078;2022-09-09T01:53:22;97442.72;;;15.53;86.83
26083;BME280;13848;49.018;12.078;2022-09-09T01:55:57;97436.25;;;15.54;87.24
26083;BME280;13848;49.018;12.078;2022-09-09T01:58:32;97437.34;;;15.58;86.56
26083;BME280;13848;49.018;12.078;2022-09-09T02:01:07;97436.53;;;15.58;86.24
26083;BME280;13848;49.018;12.078;2022-09-09T02:03:35;97438.78;;;15.34;87.39
26083;BME280;13848;49.018;12.078;2022-09-09T02:06:13;97434.19;;;15.39;86.98
26083;BME280;13848;49.018;12.078;2022-09-09T02:08:45;97432.13;;;15.20;88.30
26083;BME280;13848;49.018;12.078;2022-09-09T02:11:14;97440.06;;;15.26;88.12
26083;BME280;13848;49.018;12.078;2022-09-09T02:13:43;97447.97;;;15.28;87.96
26083;BME280;13848;49.018;12.078;2022-09-09T02:16:16;97439.84;;;15.33;87.14
26083;BME280;13848;49.018;12.078;2022-09-09T02:18:48;97442.63;;;15.38;86.98
26083;BME280;13848;49.018;12.078;2022-09-09T02:21:17;97457.63;;;15.18;87.92
26083;BME280;13848;49.018;12.078;2022-09-09T02:23:45;97452.19;;;15.13;88.85
26083;BME280;13848;49.018;12.078;2022-09-09T02:26:13;97441.38;;;15.24;87.83
26083;BME280;13848;49.018;12.078;2022-09-09T02:28:41;97444.16;;;15.29;87.05
26083;BME280;13848;49.018;12.078;2022-09-09T02:31:07;97450.13;;;15.26;87.59
26083;BME280;13848;49.018;12.078;2022-09-09T02:33:38;97446.75;;;15.13;88.01
26083;BME280;13848;49.018;12.078;2022-09-09T02:36:07;97447.75;;;15.07;88.13
26083;BME280;13848;49.018;12.078;2022-09-09T02:38:36;97443.56;;;15.22;87.71
26083;BME280;13848;49.018;12.078;2022-09-09T02:41:03;97443.19;;;14.86;89.00
26083;BME280;13848;49.018;12.078;2022-09-09T02:43:31;97439.47;;;14.92;89.33
26083;BME280;13848;49.018;12.078;2022-09-09T02:46:03;97436.13;;;14.85;89.27
26083;BME280;13848;49.018;12.078;2022-09-09T02:48:36;97436.47;;;14.94;88.77
26083;BME280;13848;49.018;12.078;2022-09-09T02:51:15;97430.44;;;14.86;89.06
26083;BME280;13848;49.018;12.078;2022-09-09T02:53:49;97442.72;;;14.94;88.80
26083;BME280;13848;49.018;12.078;2022-09-09T02:56:21;97439.47;;;14.92;88.92
26083;BME280;13848;49.018;12.078;2022-09-09T02:58:51;97439.72;;;14.90;88.82
26083;BME280;13848;49.018;12.078;2022-09-09T03:01:17;97438.66;;;14.92;89.05
26083;BME280;13848;49.018;12.078;2022-09-09T03:03:46;97437.44;;;14.82;89.15
26083;BME280;13848;49.018;12.078;2022-09-09T03:06:16;97434.63;;;14.72;89.86
26083;BME280;13848;49.018;12.078;2022-09-09T03:08:42;97426.69;;;14.66;89.86
26083;BME280;13848;49.018;12.078;2022-09-09T03:11:08;97424.25;;;14.91;88.85
26083;BME280;13848;49.018;12.078;2022-09-09T03:13:34;97425.28;;;14.85;88.94
26083;BME280;13848;49.018;12.078;2022-09-09T03:16:00;97429.66;;;14.64;89.47
26083;BME280;13848;49.018;12.078;2022-09-09T03:18:27;97425.72;;;14.77;88.88
26083;BME280;13848;49.018;12.078;2022-09-09T03:20:54;97430.53;;;14.70;89.38
26083;BME280;13848;49.018;12.078;2022-09-09T03:23:20;97430.47;;;14.64;89.56
26083;BME280;13848;49.018;12.078;2022-09-09T03:25:46;97434.94;;;14.76;88.50
26083;BME280;13848;49.018;12.078;2022-09-09T03:28:12;97436.56;;;14.50;89.66
26083;BME280;13848;49.018;12.078;2022-09-09T03:30:38;97443.91;;;14.54;89.50
26083;BME280;13848;49.018;12.078;2022-09-09T03:33:04;97448.34;;;14.44;89.85
26083;BME280;13848;49.018;12.078;2022-09-09T03:35:30;97447.63;;;14.48;90.08
26083;BME280;13848;49.018;12.078;2022-09-09T03:37:58;97437.19;;;14.40;89.69
26083;BME280;13848;49.018;12.078;2022-09-09T03:40:24;97433.56;;;14.51;89.66
26083;BME280;13848;49.018;12.078;2022-09-09T03:42:50;97439.06;;;14.56;89.07
26083;BME280;13848;49.018;12.078;2022-09-09T03:45:16;97440.94;;;14.34;89.87
26083;BME280;13848;49.018;12.078;2022-09-09T03:47:41;97441.34;;;14.26;90.49
26083;BME280;13848;49.018;12.078;2022-09-09T03:50:08;97441.88;;;14.23;90.83
26083;BME280;13848;49.018;12.078;2022-09-09T03:52:35;97438.22;;;14.34;90.01
26083;BME280;13848;49.018;12.078;2022-09-09T03:55:02;97435.78;;;14.37;89.86
26083;BME280;13848;49.018;12.078;2022-09-09T03:57:28;97440.84;;;14.29;90.27
26083;BME280;13848;49.018;12.078;2022-09-09T03:59:54;97440.03;;;14.28;90.20
26083;BME280;13848;49.018;12.078;2022-09-09T04:02:20;97440.22;;;14.22;90.21
26083;BME280;13848;49.018;12.078;2022-09-09T04:04:46;97440.22;;;14.22;90.29
26083;BME280;13848;49.018;12.078;2022-09-09T04:07:12;97437.94;;;14.14;90.54
26083;BME280;13848;49.018;12.078;2022-09-09T04:09:38;97438.94;;;14.07;90.89
26083;BME280;13848;49.018;12.078;2022-09-09T04:12:06;97446.72;;;14.21;90.52
26083;BME280;13848;49.018;12.078;2022-09-09T04:14:32;97432.44;;;14.08;90.44
26083;BME280;13848;49.018;12.078;2022-09-09T04:16:58;97432.66;;;14.24;89.93
26083;BME280;13848;49.018;12.078;2022-09-09T04:19:24;97432.75;;;14.12;89.87
26083;BME280;13848;49.018;12.078;2022-09-09T04:21:50;97431.50;;;14.20;89.82
26083;BME280;13848;49.018;12.078;2022-09-09T04:24:16;97428.09;;;14.07;89.96
26083;BME280;13848;49.018;12.078;2022-09-09T04:26:42;97434.84;;;14.05;90.09
26083;BME280;13848;49.018;12.078;2022-09-09T04:29:09;97430.31;;;14.10;89.83
26083;BME280;13848;49.018;12.078;2022-09-09T04:31:35;97429.41;;;14.05;89.96
26083;BME280;13848;49.018;12.078;2022-09-09T04:34:01;97432.66;;;14.24;89.03
26083;BME280;13848;49.018;12.078;2022-09-09T04:36:27;97432.84;;;14.17;89.06
26083;BME280;13848;49.018;12.078;2022-09-09T04:38:53;97439.06;;;14.18;88.66
26083;BME280;13848;49.018;12.078;2022-09-09T04:41:19;97432.50;;;14.14;89.10
26083;BME280;13848;49.018;12.078;2022-09-09T04:43:45;97431.66;;;14.30;88.19
26083;BME280;13848;49.018;12.078;2022-09-09T04:46:12;97425.81;;;13.99;89.15
26083;BME280;13848;49.018;12.078;2022-09-09T04:48:38;97422.28;;;13.99;89.73
26083;BME280;13848;49.018;12.078;2022-09-09T04:51:05;97429.72;;;14.08;89.58
26083;BME280;13848;49.018;12.078;2022-09-09T04:53:32;97419.88;;;14.02;89.54
26083;BME280;13848;49.018;12.078;2022-09-09T04:56:02;97427.94;;;13.97;90.05
26083;BME280;13848;49.018;12.078;2022-09-09T04:58:28;97430.09;;;13.95;90.34
26083;BME280;13848;49.018;12.078;2022-09-09T05:00:54;97416.06;;;14.20;89.14
26083;BME280;13848;49.018;12.078;2022-09-09T05:03:22;97422.44;;;14.31;88.49
26083;BME280;13848;49.018;12.078;2022-09-09T05:05:48;97414.28;;;14.31;88.43
26083;BME280;13848;49.018;12.078;2022-09-09T05:08:13;97412.91;;;14.28;88.51
26083;BME280;13848;49.018;12.078;2022-09-09T05:10:39;97415.22;;;14.20;88.75
26083;BME280;13848;49.018;12.078;2022-09-09T05:13:05;97420.78;;;14.30;88.77
26083;BME280;13848;49.018;12.078;2022-09-09T05:15:31;97412.72;;;14.35;88.01
26083;BME280;13848;49.018;12.078;2022-09-09T05:17:58;97419.03;;;14.41;87.89
26083;BME280;13848;49.018;12.078;2022-09-09T05:20:25;97421.41;;;14.37;87.70
26083;BME280;13848;49.018;12.078;2022-09-09T05:22:52;97431.66;;;14.30;88.57
26083;BME280;13848;49.018;12.078;2022-09-09T05:25:18;97433.41;;;14.41;87.78
26083;BME280;13848;49.018;12.078;2022-09-09T05:27:44;97435.03;;;14.42;87.04
26083;BME280;13848;49.018;12.078;2022-09-09T05:30:11;97435.75;;;14.32;88.22
26083;BME280;13848;49.018;12.078;2022-09-09T05:32:37;97448.25;;;14.33;88.06
26083;BME280;13848;49.018;12.078;2022-09-09T05:35:03;97443.78;;;14.44;87.49
26083;BME280;13848;49.018;12.078;2022-09-09T05:37:31;97441.41;;;14.31;88.13
26083;BME280;13848;49.018;12.078;2022-09-09T05:39:57;97451.00;;;14.55;87.14
26083;BME280;13848;49.018;12.078;2022-09-09T05:42:23;97456.97;;;14.57;86.70
26083;BME280;13848;49.018;12.078;2022-09-09T05:44:49;97458.28;;;14.33;87.74
26083;BME280;13848;49.018;12.078;2022-09-09T05:47:15;97460.91;;;14.28;87.87
26083;BME280;13848;49.018;12.078;2022-09-09T05:49:41;97467.34;;;14.22;88.32
26083;BME280;13848;49.018;12.078;2022-09-09T05:52:07;97468.00;;;14.12;88.90
26083;BME280;13848;49.018;12.078;2022-09-09T05:54:35;97464.97;;;14.08;89.13
26083;BME280;13848;49.018;12.078;2022-09-09T05:57:00;97469.38;;;14.15;88.52
26083;BME280;13848;49.018;12.078;2022-09-09T05:59:26;97472.88;;;14.32;87.94
26083;BME280;13848;49.018;12.078;2022-09-09T06:01:52;97480.69;;;13.90;89.01
26083;BME280;13848;49.018;12.078;2022-09-09T06:04:18;97471.09;;;13.99;88.90
26083;BME280;13848;49.018;12.078;2022-09-09T06:06:44;97475.41;;;14.17;88.20
26083;BME280;13848;49.018;12.078;2022-09-09T06:09:10;97475.88;;;14.14;87.94
26083;BME280;13848;49.018;12.078;2022-09-09T06:11:39;97472.09;;;14.15;87.98
26083;BME280;13848;49.018;12.078;2022-09-09T06:14:06;97463.91;;;14.09;87.91
26083;BME280;13848;49.018;12.078;2022-09-09T06:16:33;97465.69;;;13.82;89.62
26083;BME280;13848;49.018;12.078;2022-09-09T06:18:59;97472.47;;;14.01;89.01
26083;BME280;13848;49.018;12.078;2022-09-09T06:21:26;97466.03;;;14.07;88.37
26083;BME280;13848;49.018;12.078;2022-09-09T06:23:53;97464.41;;;14.06;88.19
26083;BME280;13848;49.018;12.078;2022-09-09T06:26:20;97464.75;;;14.10;87.89
26083;BME280;13848;49.018;12.078;2022-09-09T06:28:49;97464.75;;;13.93;88.86
26083;BME280;13848;49.018;12.078;2022-09-09T06:31:17;97462.41;;;14.19;88.15
26083;BME280;13848;49.018;12.078;2022-09-09T06:33:43;97466.63;;;14.48;87.45
26083;BME280;13848;49.018;12.078;2022-09-09T06:36:11;97465.75;;;14.64;86.65
26083;BME280;13848;49.018;12.078;2022-09-09T06:38:38;97475.97;;;14.79;85.85
26083;BME280;13848;49.018;12.078;2022-09-09T06:41:04;97474.81;;;14.97;85.16
26083;BME280;13848;49.018;12.078;2022-09-09T06:43:30;97473.97;;;15.24;83.96
26083;BME280;13848;49.018;12.078;2022-09-09T06:45:59;97459.94;;;15.32;83.79
26083;BME280;13848;49.018;12.078;2022-09-09T06:48:26;97460.25;;;15.35;82.33
26083;BME280;13848;49.018;12.078;2022-09-09T06:51:00;97464.81;;;15.30;82.22
26083;BME280;13848;49.018;12.078;2022-09-09T06:53:26;97470.31;;;15.08;83.01
26083;BME280;13848;49.018;12.078;2022-09-09T06:55:52;97475.59;;;15.20;83.25
26083;BME280;13848;49.018;12.078;2022-09-09T06:58:18;97466.69;;;15.29;83.14
26083;BME280;13848;49.018;12.078;2022-09-09T07:00:44;97475.84;;;16.14;84.07
26083;BME280;13848;49.018;12.078;2022-09-09T07:03:11;97473.13;;;16.14;80.52
26083;BME280;13848;49.018;12.078;2022-09-09T07:05:37;97480.50;;;16.19;79.53
26083;BME280;13848;49.018;12.078;2022-09-09T07:08:03;97480.72;;;16.12;78.51
26083;BME280;13848;49.018;12.078;2022-09-09T07:10:29;97488.31;;;16.10;78.32
26083;BME280;13848;49.018;12.078;2022-09-09T07:12:55;97498.75;;;15.86;78.75
26083;BME280;13848;49.018;12.078;2022-09-09T07:15:21;97485.94;;;15.82;79.77
26083;BME280;13848;49.018;12.078;2022-09-09T07:17:47;97496.81;;;16.19;78.41
26083;BME280;13848;49.018;12.078;2022-09-09T07:20:15;97493.38;;;16.39;78.12
26083;BME280;13848;49.018;12.078;2022-09-09T07:22:40;97495.53;;;16.32;77.29
26083;BME280;13848;49.018;12.078;2022-09-09T07:25:07;97505.75;;;16.14;77.71
26083;BME280;13848;49.018;12.078;2022-09-09T07:27:33;97492.28;;;15.92;78.24
26083;BME280;13848;49.018;12.078;2022-09-09T07:29:59;97492.66;;;16.06;78.08
26083;BME280;13848;49.018;12.078;2022-09-09T07:32:25;97495.41;;;15.74;79.53
26083;BME280;13848;49.018;12.078;2022-09-09T07:34:51;97512.97;;;15.99;78.70
26083;BME280;13848;49.018;12.078;2022-09-09T07:37:18;97512.63;;;15.85;79.46
26083;BME280;13848;49.018;12.078;2022-09-09T07:39:44;97526.25;;;15.90;79.97
26083;BME280;13848;49.018;12.078;2022-09-09T07:42:10;97528.59;;;16.13;79.98
26083;BME280;13848;49.018;12.078;2022-09-09T07:44:37;97532.84;;;15.99;80.81
26083;BME280;13848;49.018;12.078;2022-09-09T07:47:03;97531.75;;;16.00;80.12
26083;BME280;13848;49.018;12.078;2022-09-09T07:49:29;97540.25;;;15.77;81.02
26083;BME280;13848;49.018;12.078;2022-09-09T07:51:55;97546.78;;;15.76;80.91
26083;BME280;13848;49.018;12.078;2022-09-09T07:54:22;97545.97;;;15.48;81.59
26083;BME280;13848;49.018;12.078;2022-09-09T07:56:48;97545.03;;;15.37;81.82
26083;BME280;13848;49.018;12.078;2022-09-09T07:59:15;97537.31;;;15.29;83.26
26083;BME280;13848;49.018;12.078;2022-09-09T08:01:43;97534.47;;;15.41;82.87
26083;BME280;13848;49.018;12.078;2022-09-09T08:04:12;97545.25;;;15.31;83.45
26083;BME280;13848;49.018;12.078;2022-09-09T08:06:41;97542.16;;;15.49;82.83
26083;BME280;13848;49.018;12.078;2022-09-09T08:09:08;97537.47;;;15.66;82.78
26083;BME280;13848;49.018;12.078;2022-09-09T08:11:36;97540.06;;;15.56;81.93
26083;BME280;13848;49.018;12.078;2022-09-09T08:14:03;97545.75;;;15.28;84.25
26083;BME280;13848;49.018;12.078;2022-09-09T08:16:31;97540.81;;;15.52;83.52
26083;BME280;13848;49.018;12.078;2022-09-09T08:18:58;97542.59;;;15.63;82.96
26083;BME280;13848;49.018;12.078;2022-09-09T08:21:26;97550.47;;;15.64;82.50
26083;BME280;13848;49.018;12.078;2022-09-09T08:23:53;97551.63;;;15.68;82.71
26083;BME280;13848;49.018;12.078;2022-09-09T08:26:21;97542.16;;;15.76;82.76
26083;BME280;13848;49.018;12.078;2022-09-09T08:28:50;97553.34;;;15.80;82.05
26083;BME280;13848;49.018;12.078;2022-09-09T08:31:18;97553.63;;;15.78;82.42
26083;BME280;13848;49.018;12.078;2022-09-09T08:33:44;97540.31;;;15.82;81.37
26083;BME280;13848;49.018;12.078;2022-09-09T08:36:12;97540.63;;;15.85;81.46
26083;BME280;13848;49.018;12.078;2022-09-09T08:38:38;97542.03;;;15.93;81.57
26083;BME280;13848;49.018;12.078;2022-09-09T08:41:14;97543.59;;;15.84;80.91
26083;BME280;13848;49.018;12.078;2022-09-09T08:43:43;97537.53;;;15.77;81.12
26083;BME280;13848;49.018;12.078;2022-09-09T08:46:16;97543.66;;;15.94;81.37
26083;BME280;13848;49.018;12.078;2022-09-09T08:48:52;97549.19;;;16.04;81.26
26083;BME280;13848;49.018;12.078;2022-09-09T08:51:24;97555.22;;;16.11;81.46
26083;BME280;13848;49.018;12.078;2022-09-09T08:53:52;97553.38;;;16.17;81.29
26083;BME280;13848;49.018;12.078;2022-09-09T08:56:21;97555.00;;;16.13;81.30
26083;BME280;13848;49.018;12.078;2022-09-09T08:58:49;97562.38;;;16.22;81.13
26083;BME280;13848;49.018;12.078;2022-09-09T09:01:25;97562.69;;;16.26;80.89
26083;BME280;13848;49.018;12.078;2022-09-09T09:04:00;97550.75;;;16.32;81.12
26083;BME280;13848;49.018;12.078;2022-09-09T09:06:39;97544.59;;;16.42;81.75
26083;BME280;13848;49.018;12.078;2022-09-09T09:09:12;97547.34;;;16.47;80.70
26083;BME280;13848;49.018;12.078;2022-09-09T09:11:53;97554.84;;;16.35;80.55
26083;BME280;13848;49.018;12.078;2022-09-09T09:14:22;97559.84;;;16.48;79.97
26083;BME280;13848;49.018;12.078;2022-09-09T09:16:52;97555.81;;;16.56;80.18
26083;BME280;13848;49.018;12.078;2022-09-09T09:19:19;97556.38;;;16.63;79.67
26083;BME280;13848;49.018;12.078;2022-09-09T09:21:49;97564.38;;;16.74;80.23
26083;BME280;13848;49.018;12.078;2022-09-09T09:24:20;97552.41;;;16.75;79.67
26083;BME280;13848;49.018;12.078;2022-09-09T09:26:47;97547.59;;;16.88;79.91
26083;BME280;13848;49.018;12.078;2022-09-09T09:29:15;97551.16;;;17.03;79.72
26083;BME280;13848;49.018;12.078;2022-09-09T09:31:44;97550.44;;;17.23;78.59
26083;BME280;13848;49.018;12.078;2022-09-09T09:34:12;97548.81;;;17.33;77.98
26083;BME280;13848;49.018;12.078;2022-09-09T09:36:41;97554.28;;;17.43;78.01
26083;BME280;13848;49.018;12.078;2022-09-09T09:39:08;97547.25;;;17.57;78.20
26083;BME280;13848;49.018;12.078;2022-09-09T09:41:36;97534.72;;;17.71;76.39
26083;BME280;13848;49.018;12.078;2022-09-09T09:44:04;97535.84;;;17.96;76.34
26083;BME280;13848;49.018;12.078;2022-09-09T09:46:31;97536.41;;;17.83;75.46
26083;BME280;13848;49.018;12.078;2022-09-09T09:48:58;97534.19;;;17.85;75.59
26083;BME280;13848;49.018;12.078;2022-09-09T09:51:26;97534.22;;;18.15;76.15
26083;BME280;13848;49.018;12.078;2022-09-09T09:53:54;97538.53;;;18.52;76.13
26083;BME280;13848;49.018;12.078;2022-09-09T09:56:28;97536.81;;;18.86;73.72
26083;BME280;13848;49.018;12.078;2022-09-09T09:58:54;97527.94;;;19.20;73.95
26083;BME280;13848;49.018;12.078;2022-09-09T10:01:22;97525.88;;;18.92;72.11
26083;BME280;13848;49.018;12.078;2022-09-09T10:03:51;97521.72;;;18.99;71.47
26083;BME280;13848;49.018;12.078;2022-09-09T10:06:30;97520.50;;;18.51;71.92
26083;BME280;13848;49.018;12.078;2022-09-09T10:08:57;97526.41;;;18.88;71.39
26083;BME280;13848;49.018;12.078;2022-09-09T10:11:32;97518.19;;;18.99;72.57
26083;BME280;13848;49.018;12.078;2022-09-09T10:14:05;97522.16;;;19.27;70.53
26083;BME280;13848;49.018;12.078;2022-09-09T10:16:44;97522.31;;;19.46;69.60
26083;BME280;13848;49.018;12.078;2022-09-09T10:19:15;97526.16;;;19.45;67.13
26083;BME280;13848;49.018;12.078;2022-09-09T10:22:04;97523.22;;;19.75;67.00
26083;BME280;13848;49.018;12.078;2022-09-09T10:24:53;97512.31;;;20.04;68.14
26083;BME280;13848;49.018;12.078;2022-09-09T10:27:26;97515.16;;;19.94;66.42
26083;BME280;13848;49.018;12.078;2022-09-09T10:30:06;97516.31;;;19.44;66.59
26083;BME280;13848;49.018;12.078;2022-09-09T10:32:41;97514.06;;;19.56;65.94
26083;BME280;13848;49.018;12.078;2022-09-09T10:35:14;97516.66;;;19.76;68.14
26083;BME280;13848;49.018;12.078;2022-09-09T10:37:54;97514.56;;;20.02;66.14
26083;BME280;13848;49.018;12.078;2022-09-09T10:40:30;97511.06;;;20.26;66.56
26083;BME280;13848;49.018;12.078;2022-09-09T10:43:04;97518.81;;;20.48;65.81
26083;BME280;13848;49.018;12.078;2022-09-09T10:45:41;97527.84;;;20.48;65.49
26083;BME280;13848;49.018;12.078;2022-09-09T10:48:31;97528.38;;;19.37;67.25
26083;BME280;13848;49.018;12.078;2022-09-09T10:51:10;97526.19;;;19.39;66.89
26083;BME280;13848;49.018;12.078;2022-09-09T10:53:48;97528.38;;;19.37;66.78
26083;BME280;13848;49.018;12.078;2022-09-09T10:56:20;97525.09;;;19.85;66.85
26083;BME280;13848;49.018;12.078;2022-09-09T10:58:50;97525.88;;;19.90;65.50
26083;BME280;13848;49.018;12.078;2022-09-09T11:01:20;97528.31;;;19.92;65.45
26083;BME280;13848;49.018;12.078;2022-09-09T11:03:53;97524.00;;;19.81;66.68
26083;BME280;13848;49.018;12.078;2022-09-09T11:06:23;97526.69;;;19.41;66.64
26083;BME280;13848;49.018;12.078;2022-09-09T11:08:53;97515.44;;;19.92;66.04
26083;BME280;13848;49.018;12.078;2022-09-09T11:11:26;97527.00;;;20.18;66.21
26083;BME280;13848;49.018;12.078;2022-09-09T11:13:55;97519.78;;;20.28;64.04
26083;BME280;13848;49.018;12.078;2022-09-09T11:16:27;97515.41;;;19.98;63.42
26083;BME280;13848;49.018;12.078;2022-09-09T11:18:58;97507.78;;;20.24;63.20
26083;BME280;13848;49.018;12.078;2022-09-09T11:21:29;97512.78;;;20.45;63.66
26083;BME280;13848;49.018;12.078;2022-09-09T11:23:59;97509.72;;;21.00;62.51
26083;BME280;13848;49.018;12.078;2022-09-09T11:26:31;97508.81;;;21.47;61.59
26083;BME280;13848;49.018;12.078;2022-09-09T11:29:10;97505.72;;;21.35;59.53
26083;BME280;13848;49.018;12.078;2022-09-09T11:31:45;97508.91;;;22.13;59.13
26083;BME280;13848;49.018;12.078;2022-09-09T11:34:21;97521.78;;;21.61;57.14
26083;BME280;13848;49.018;12.078;2022-09-09T11:37:05;97511.09;;;21.78;60.07
26083;BME280;13848;49.018;12.078;2022-09-09T11:39:47;97511.28;;;22.00;59.10
26083;BME280;13848;49.018;12.078;2022-09-09T11:42:20;97514.47;;;21.13;60.69
26083;BME280;13848;49.018;12.078;2022-09-09T11:44:47;97517.44;;;21.17;60.06
26083;BME280;13848;49.018;12.078;2022-09-09T11:47:19;97509.34;;;21.07;60.94
26083;BME280;13848;49.018;12.078;2022-09-09T11:49:46;97509.94;;;21.04;61.26
26083;BME280;13848;49.018;12.078;2022-09-09T11:52:13;97500.59;;;21.05;60.21
26083;BME280;13848;49.018;12.078;2022-09-09T11:54:47;97503.84;;;21.31;60.09
26083;BME280;13848;49.018;12.078;2022-09-09T11:57:25;97495.19;;;21.42;60.89
26083;BME280;13848;49.018;12.078;2022-09-09T11:59:51;97496.88;;;21.38;60.02
26083;BME280;13848;49.018;12.078;2022-09-09T12:02:22;97495.78;;;21.15;60.81
26083;BME280;13848;49.018;12.078;2022-09-09T12:04:54;97502.47;;;20.85;60.38
26083;BME280;13848;49.018;12.078;2022-09-09T12:07:33;97498.50;;;20.96;60.62
26083;BME280;13848;49.018;12.078;2022-09-09T12:10:18;97486.03;;;20.85;60.73
26083;BME280;13848;49.018;12.078;2022-09-09T12:12:45;97488.75;;;21.09;61.48
26083;BME280;13848;49.018;12.078;2022-09-09T12:15:24;97494.09;;;21.01;60.60
26083;BME280;13848;49.018;12.078;2022-09-09T12:17:51;97489.94;;;21.22;60.53
26083;BME280;13848;49.018;12.078;2022-09-09T12:20:20;97487.31;;;21.55;59.43
26083;BME280;13848;49.018;12.078;2022-09-09T12:26:10;97498.78;;;20.76;62.19
26083;BME280;13848;49.018;12.078;2022-09-09T12:28:53;97487.38;;;20.64;62.20
26083;BME280;13848;49.018;12.078;2022-09-09T12:31:25;97493.22;;;20.28;62.90
26083;BME280;13848;49.018;12.078;2022-09-09T12:33:52;97492.41;;;19.99;63.28
26083;BME280;13848;49.018;12.078;2022-09-09T12:36:20;97477.03;;;19.74;64.56
26083;BME280;13848;49.018;12.078;2022-09-09T12:38:48;97477.34;;;20.01;64.30
26083;BME280;13848;49.018;12.078;2022-09-09T12:41:22;97474.38;;;19.92;65.35
26083;BME280;13848;49.018;12.078;2022-09-09T12:43:49;97465.66;;;19.90;65.52
26083;BME280;13848;49.018;12.078;2022-09-09T12:46:22;97468.34;;;19.66;66.44
26083;BME280;13848;49.018;12.078;2022-09-09T12:48:49;97451.78;;;19.82;66.37
26083;BME280;13848;49.018;12.078;2022-09-09T12:51:19;97449.25;;;19.90;66.44
26083;BME280;13848;49.018;12.078;2022-09-09T12:53:46;97448.31;;;20.00;66.54
26083;BME280;13848;49.018;12.078;2022-09-09T12:56:19;97442.91;;;20.24;66.17
26083;BME280;13848;49.018;12.078;2022-09-09T12:58:49;97442.19;;;20.37;65.84
26083;BME280;13848;49.018;12.078;2022-09-09T13:01:21;97437.34;;;20.29;65.31
26083;BME280;13848;49.018;12.078;2022-09-09T13:03:47;97442.91;;;20.24;65.72
26083;BME280;13848;49.018;12.078;2022-09-09T13:06:19;97431.75;;;19.86;65.98